sensor_id;sensor_type;location;lat;lon;timestamp;P1;durP1;ratioP1;P2;durP2;ratioP2
55172;SDS011;41061;52.822;6.860;2023-09-07T00:00:12;3.88;;;2.60;;
55172;SDS011;41061;52.822;6.860;2023-09-07T00:02:38;4.10;;;2.60;;
55172;SDS011;41061;52.822;6.860;2023-09-07T00:05:05;5.80;;;2.58;;
55172;SDS011;41061;52.822;6.860;2023-09-07T00:07:32;4.75;;;2.58;;
55172;SDS011;41061;52.822;6.860;2023-09-07T00:09:58;7.50;;;2.42;;
55172;SDS011;41061;52.822;6.860;2023-09-07T00:12:25;5.20;;;2.53;;
55172;SDS011;41061;52.822;6.860;2023-09-07T00:14:51;4.03;;;2.50;;
55172;SDS011;41061;52.822;6.860;2023-09-07T00:17:19;4.55;;;2.70;;
55172;SDS011;41061;52.822;6.860;2023-09-07T00:19:45;4.80;;;2.80;;
55172;SDS011;41061;52.822;6.860;2023-09-07T00:22:14;8.07;;;3.00;;
55172;SDS011;41061;52.822;6.860;2023-09-07T00:24:39;5.57;;;2.97;;
55172;SDS011;41061;52.822;6.860;2023-09-07T00:27:05;4.00;;;2.60;;
55172;SDS011;41061;52.822;6.860;2023-09-07T00:29:33;4.47;;;2.80;;
55172;SDS011;41061;52.822;6.860;2023-09-07T00:32:02;7.75;;;3.05;;
55172;SDS011;41061;52.822;6.860;2023-09-07T00:34:28;4.63;;;2.63;;
55172;SDS011;41061;52.822;6.860;2023-09-07T00:36:56;4.47;;;3.03;;
55172;SDS011;41061;52.822;6.860;2023-09-07T00:39:22;5.65;;;2.80;;
55172;SDS011;41061;52.822;6.860;2023-09-07T00:41:48;11.48;;;3.20;;
55172;SDS011;41061;52.822;6.860;2023-09-07T00:44:14;5.85;;;3.10;;
55172;SDS011;41061;52.822;6.860;2023-09-07T00:46:40;8.10;;;3.10;;
55172;SDS011;41061;52.822;6.860;2023-09-07T00:49:07;6.88;;;2.88;;
55172;SDS011;41061;52.822;6.860;2023-09-07T00:51:33;4.65;;;3.30;;
55172;SDS011;41061;52.822;6.860;2023-09-07T00:53:59;3.95;;;2.58;;
55172;SDS011;41061;52.822;6.860;2023-09-07T00:56:28;8.48;;;3.03;;
55172;SDS011;41061;52.822;6.860;2023-09-07T00:58:54;9.27;;;3.45;;
55172;SDS011;41061;52.822;6.860;2023-09-07T01:01:22;4.93;;;3.40;;
55172;SDS011;41061;52.822;6.860;2023-09-07T01:03:49;6.68;;;3.17;;
55172;SDS011;41061;52.822;6.860;2023-09-07T01:06:16;4.03;;;3.05;;
55172;SDS011;41061;52.822;6.860;2023-09-07T01:08:51;6.60;;;3.33;;
55172;SDS011;41061;52.822;6.860;2023-09-07T01:11:21;10.85;;;3.88;;
55172;SDS011;41061;52.822;6.860;2023-09-07T01:13:50;5.32;;;3.70;;
55172;SDS011;41061;52.822;6.860;2023-09-07T01:16:20;5.20;;;3.20;;
55172;SDS011;41061;52.822;6.860;2023-09-07T01:18:47;3.40;;;2.70;;
55172;SDS011;41061;52.822;6.860;2023-09-07T01:21:13;5.93;;;3.40;;
55172;SDS011;41061;52.822;6.860;2023-09-07T01:23:40;8.70;;;3.50;;
55172;SDS011;41061;52.822;6.860;2023-09-07T01:26:07;6.60;;;3.30;;
55172;SDS011;41061;52.822;6.860;2023-09-07T01:28:34;5.88;;;3.30;;
55172;SDS011;41061;52.822;6.860;2023-09-07T01:31:00;5.53;;;3.10;;
55172;SDS011;41061;52.822;6.860;2023-09-07T01:33:29;8.98;;;3.42;;
55172;SDS011;41061;52.822;6.860;2023-09-07T01:35:55;6.82;;;2.88;;
55172;SDS011;41061;52.822;6.860;2023-09-07T01:38:20;5.65;;;3.05;;
55172;SDS011;41061;52.822;6.860;2023-09-07T01:40:46;5.35;;;3.50;;
55172;SDS011;41061;52.822;6.860;2023-09-07T01:43:12;6.25;;;3.15;;
55172;SDS011;41061;52.822;6.860;2023-09-07T01:45:38;8.43;;;3.28;;
55172;SDS011;41061;52.822;6.860;2023-09-07T01:48:14;7.30;;;3.47;;
55172;SDS011;41061;52.822;6.860;2023-09-07T01:50:40;7.45;;;3.33;;
55172;SDS011;41061;52.822;6.860;2023-09-07T01:53:05;6.78;;;3.13;;
55172;SDS011;41061;52.822;6.860;2023-09-07T01:55:32;6.70;;;3.50;;
55172;SDS011;41061;52.822;6.860;2023-09-07T01:57:58;6.00;;;3.33;;
55172;SDS011;41061;52.822;6.860;2023-09-07T02:00:23;8.50;;;3.38;;
55172;SDS011;41061;52.822;6.860;2023-09-07T02:02:49;7.63;;;3.33;;
55172;SDS011;41061;52.822;6.860;2023-09-07T02:05:15;5.93;;;4.05;;
55172;SDS011;41061;52.822;6.860;2023-09-07T02:07:41;6.13;;;3.22;;
55172;SDS011;41061;52.822;6.860;2023-09-07T02:10:08;6.80;;;3.53;;
55172;SDS011;41061;52.822;6.860;2023-09-07T02:12:35;8.02;;;3.45;;
55172;SDS011;41061;52.822;6.860;2023-09-07T02:15:01;7.20;;;3.70;;
55172;SDS011;41061;52.822;6.860;2023-09-07T02:17:28;6.15;;;3.50;;
55172;SDS011;41061;52.822;6.860;2023-09-07T02:19:55;6.95;;;3.53;;
55172;SDS011;41061;52.822;6.860;2023-09-07T02:22:21;4.22;;;3.30;;
55172;SDS011;41061;52.822;6.860;2023-09-07T02:24:46;5.70;;;3.65;;
55172;SDS011;41061;52.822;6.860;2023-09-07T02:27:12;6.82;;;3.45;;
55172;SDS011;41061;52.822;6.860;2023-09-07T02:29:38;10.23;;;3.42;;
55172;SDS011;41061;52.822;6.860;2023-09-07T02:32:04;11.00;;;3.42;;
55172;SDS011;41061;52.822;6.860;2023-09-07T02:34:31;10.32;;;3.53;;
55172;SDS011;41061;52.822;6.860;2023-09-07T02:36:56;10.25;;;3.45;;
55172;SDS011;41061;52.822;6.860;2023-09-07T02:39:22;6.40;;;3.83;;
55172;SDS011;41061;52.822;6.860;2023-09-07T02:41:52;4.10;;;2.90;;
55172;SDS011;41061;52.822;6.860;2023-09-07T02:44:17;5.05;;;3.20;;
55172;SDS011;41061;52.822;6.860;2023-09-07T02:46:43;8.45;;;3.45;;
55172;SDS011;41061;52.822;6.860;2023-09-07T02:49:09;10.45;;;3.63;;
55172;SDS011;41061;52.822;6.860;2023-09-07T02:51:35;5.38;;;3.60;;
55172;SDS011;41061;52.822;6.860;2023-09-07T02:54:01;7.32;;;4.15;;
55172;SDS011;41061;52.822;6.860;2023-09-07T02:56:28;6.47;;;3.63;;
55172;SDS011;41061;52.822;6.860;2023-09-07T02:58:54;6.90;;;4.15;;
55172;SDS011;41061;52.822;6.860;2023-09-07T03:01:19;8.40;;;3.92;;
55172;SDS011;41061;52.822;6.860;2023-09-07T03:03:46;4.82;;;4.00;;
55172;SDS011;41061;52.822;6.860;2023-09-07T03:06:12;6.00;;;4.03;;
55172;SDS011;41061;52.822;6.860;2023-09-07T03:08:44;4.95;;;3.65;;
55172;SDS011;41061;52.822;6.860;2023-09-07T03:11:10;4.45;;;3.90;;
55172;SDS011;41061;52.822;6.860;2023-09-07T03:13:36;6.00;;;4.10;;
55172;SDS011;41061;52.822;6.860;2023-09-07T03:16:03;5.97;;;4.28;;
55172;SDS011;41061;52.822;6.860;2023-09-07T03:18:29;7.68;;;4.22;;
55172;SDS011;41061;52.822;6.860;2023-09-07T03:20:57;8.40;;;4.20;;
55172;SDS011;41061;52.822;6.860;2023-09-07T03:23:26;8.10;;;4.47;;
55172;SDS011;41061;52.822;6.860;2023-09-07T03:25:53;8.25;;;4.13;;
55172;SDS011;41061;52.822;6.860;2023-09-07T03:28:19;6.95;;;4.60;;
55172;SDS011;41061;52.822;6.860;2023-09-07T03:30:44;5.72;;;3.95;;
55172;SDS011;41061;52.822;6.860;2023-09-07T03:33:10;8.98;;;4.57;;
55172;SDS011;41061;52.822;6.860;2023-09-07T03:35:36;8.07;;;4.65;;
55172;SDS011;41061;52.822;6.860;2023-09-07T03:38:03;6.50;;;4.15;;
55172;SDS011;41061;52.822;6.860;2023-09-07T03:40:29;9.88;;;4.70;;
55172;SDS011;41061;52.822;6.860;2023-09-07T03:42:54;10.80;;;5.10;;
55172;SDS011;41061;52.822;6.860;2023-09-07T03:45:20;6.78;;;4.18;;
55172;SDS011;41061;52.822;6.860;2023-09-07T03:47:46;6.07;;;4.68;;
55172;SDS011;41061;52.822;6.860;2023-09-07T03:50:11;8.30;;;4.72;;
55172;SDS011;41061;52.822;6.860;2023-09-07T03:52:37;9.05;;;4.50;;
55172;SDS011;41061;52.822;6.860;2023-09-07T03:55:03;6.63;;;5.05;;
55172;SDS011;41061;52.822;6.860;2023-09-07T03:57:29;7.95;;;4.43;;
55172;SDS011;41061;52.822;6.860;2023-09-07T03:59:56;5.45;;;4.25;;
55172;SDS011;41061;52.822;6.860;2023-09-07T04:02:22;5.88;;;4.65;;
55172;SDS011;41061;52.822;6.860;2023-09-07T04:04:49;10.38;;;5.57;;
55172;SDS011;41061;52.822;6.860;2023-09-07T04:07:16;8.38;;;4.30;;
55172;SDS011;41061;52.822;6.860;2023-09-07T04:09:42;10.55;;;4.53;;
55172;SDS011;41061;52.822;6.860;2023-09-07T04:12:09;4.97;;;4.47;;
55172;SDS011;41061;52.822;6.860;2023-09-07T04:14:35;8.20;;;4.85;;
55172;SDS011;41061;52.822;6.860;2023-09-07T04:17:01;9.07;;;5.60;;
55172;SDS011;41061;52.822;6.860;2023-09-07T04:19:27;9.98;;;5.00;;
55172;SDS011;41061;52.822;6.860;2023-09-07T04:21:52;5.53;;;4.70;;
55172;SDS011;41061;52.822;6.860;2023-09-07T04:24:19;6.00;;;4.63;;
55172;SDS011;41061;52.822;6.860;2023-09-07T04:26:47;7.50;;;4.50;;
55172;SDS011;41061;52.822;6.860;2023-09-07T04:29:14;9.55;;;5.07;;
55172;SDS011;41061;52.822;6.860;2023-09-07T04:31:40;9.05;;;5.82;;
55172;SDS011;41061;52.822;6.860;2023-09-07T04:34:06;7.38;;;5.35;;
55172;SDS011;41061;52.822;6.860;2023-09-07T04:36:32;8.75;;;5.50;;
55172;SDS011;41061;52.822;6.860;2023-09-07T04:38:58;6.10;;;5.50;;
55172;SDS011;41061;52.822;6.860;2023-09-07T04:41:24;6.43;;;4.82;;
55172;SDS011;41061;52.822;6.860;2023-09-07T04:43:53;9.85;;;5.20;;
55172;SDS011;41061;52.822;6.860;2023-09-07T04:46:20;11.73;;;5.13;;
55172;SDS011;41061;52.822;6.860;2023-09-07T04:48:47;10.85;;;5.10;;
55172;SDS011;41061;52.822;6.860;2023-09-07T04:51:12;5.80;;;5.20;;
55172;SDS011;41061;52.822;6.860;2023-09-07T04:53:39;6.95;;;5.95;;
55172;SDS011;41061;52.822;6.860;2023-09-07T04:56:05;6.63;;;5.00;;
55172;SDS011;41061;52.822;6.860;2023-09-07T04:58:33;7.38;;;5.20;;
55172;SDS011;41061;52.822;6.860;2023-09-07T05:01:02;9.38;;;5.43;;
55172;SDS011;41061;52.822;6.860;2023-09-07T05:03:34;7.03;;;5.68;;
55172;SDS011;41061;52.822;6.860;2023-09-07T05:06:00;7.95;;;5.88;;
55172;SDS011;41061;52.822;6.860;2023-09-07T05:08:28;12.77;;;5.97;;
55172;SDS011;41061;52.822;6.860;2023-09-07T05:10:54;11.20;;;5.68;;
55172;SDS011;41061;52.822;6.860;2023-09-07T05:13:21;6.57;;;5.47;;
55172;SDS011;41061;52.822;6.860;2023-09-07T05:15:48;7.65;;;5.20;;
55172;SDS011;41061;52.822;6.860;2023-09-07T05:18:14;9.50;;;5.95;;
55172;SDS011;41061;52.822;6.860;2023-09-07T05:20:40;7.57;;;5.82;;
55172;SDS011;41061;52.822;6.860;2023-09-07T05:23:06;8.23;;;5.47;;
55172;SDS011;41061;52.822;6.860;2023-09-07T05:25:32;11.35;;;5.70;;
55172;SDS011;41061;52.822;6.860;2023-09-07T05:27:57;10.98;;;5.95;;
55172;SDS011;41061;52.822;6.860;2023-09-07T05:30:23;6.97;;;5.72;;
55172;SDS011;41061;52.822;6.860;2023-09-07T05:32:49;7.30;;;5.63;;
55172;SDS011;41061;52.822;6.860;2023-09-07T05:35:14;8.20;;;5.80;;
55172;SDS011;41061;52.822;6.860;2023-09-07T05:37:42;9.38;;;6.30;;
55172;SDS011;41061;52.822;6.860;2023-09-07T05:40:08;8.90;;;6.10;;
55172;SDS011;41061;52.822;6.860;2023-09-07T05:42:34;8.32;;;6.28;;
55172;SDS011;41061;52.822;6.860;2023-09-07T05:45:00;9.48;;;5.78;;
55172;SDS011;41061;52.822;6.860;2023-09-07T05:47:25;11.60;;;5.97;;
55172;SDS011;41061;52.822;6.860;2023-09-07T05:49:51;7.28;;;5.90;;
55172;SDS011;41061;52.822;6.860;2023-09-07T05:52:17;9.30;;;6.18;;
55172;SDS011;41061;52.822;6.860;2023-09-07T05:54:43;6.82;;;6.13;;
55172;SDS011;41061;52.822;6.860;2023-09-07T05:57:08;10.40;;;6.00;;
55172;SDS011;41061;52.822;6.860;2023-09-07T05:59:34;7.57;;;6.20;;
55172;SDS011;41061;52.822;6.860;2023-09-07T06:02:00;9.23;;;5.70;;
55172;SDS011;41061;52.822;6.860;2023-09-07T06:04:25;8.70;;;5.97;;
55172;SDS011;41061;52.822;6.860;2023-09-07T06:06:51;10.55;;;5.78;;
55172;SDS011;41061;52.822;6.860;2023-09-07T06:09:17;7.00;;;6.10;;
55172;SDS011;41061;52.822;6.860;2023-09-07T06:11:43;8.57;;;5.80;;
55172;SDS011;41061;52.822;6.860;2023-09-07T06:14:08;7.57;;;5.45;;
55172;SDS011;41061;52.822;6.860;2023-09-07T06:16:34;8.50;;;5.85;;
55172;SDS011;41061;52.822;6.860;2023-09-07T06:19:00;8.20;;;6.05;;
55172;SDS011;41061;52.822;6.860;2023-09-07T06:21:26;8.50;;;6.00;;
55172;SDS011;41061;52.822;6.860;2023-09-07T06:23:51;8.88;;;6.50;;
55172;SDS011;41061;52.822;6.860;2023-09-07T06:26:17;7.05;;;5.75;;
55172;SDS011;41061;52.822;6.860;2023-09-07T06:28:44;8.00;;;6.25;;
55172;SDS011;41061;52.822;6.860;2023-09-07T06:31:10;7.15;;;6.05;;
55172;SDS011;41061;52.822;6.860;2023-09-07T06:33:35;7.22;;;5.65;;
55172;SDS011;41061;52.822;6.860;2023-09-07T06:36:01;6.72;;;5.90;;
55172;SDS011;41061;52.822;6.860;2023-09-07T06:38:27;9.82;;;5.45;;
55172;SDS011;41061;52.822;6.860;2023-09-07T06:40:53;6.68;;;5.45;;
55172;SDS011;41061;52.822;6.860;2023-09-07T06:43:19;8.95;;;5.20;;
55172;SDS011;41061;52.822;6.860;2023-09-07T06:45:44;12.82;;;5.70;;
55172;SDS011;41061;52.822;6.860;2023-09-07T06:48:11;6.82;;;5.65;;
55172;SDS011;41061;52.822;6.860;2023-09-07T06:50:38;9.23;;;5.70;;
55172;SDS011;41061;52.822;6.860;2023-09-07T06:53:04;6.05;;;4.90;;
55172;SDS011;41061;52.822;6.860;2023-09-07T06:55:29;8.43;;;5.50;;
55172;SDS011;41061;52.822;6.860;2023-09-07T06:57:55;7.35;;;5.70;;
55172;SDS011;41061;52.822;6.860;2023-09-07T07:00:21;8.27;;;5.78;;
55172;SDS011;41061;52.822;6.860;2023-09-07T07:02:46;7.13;;;5.40;;
55172;SDS011;41061;52.822;6.860;2023-09-07T07:05:13;8.10;;;5.47;;
55172;SDS011;41061;52.822;6.860;2023-09-07T07:07:38;9.50;;;5.43;;
55172;SDS011;41061;52.822;6.860;2023-09-07T07:10:05;7.35;;;5.20;;
55172;SDS011;41061;52.822;6.860;2023-09-07T07:12:31;8.15;;;5.15;;
55172;SDS011;41061;52.822;6.860;2023-09-07T07:15:03;12.70;;;5.70;;
55172;SDS011;41061;52.822;6.860;2023-09-07T07:17:29;8.95;;;5.30;;
55172;SDS011;41061;52.822;6.860;2023-09-07T07:19:55;6.50;;;4.60;;
55172;SDS011;41061;52.822;6.860;2023-09-07T07:22:20;6.57;;;5.78;;
55172;SDS011;41061;52.822;6.860;2023-09-07T07:24:46;8.68;;;5.30;;
55172;SDS011;41061;52.822;6.860;2023-09-07T07:27:13;8.38;;;5.38;;
55172;SDS011;41061;52.822;6.860;2023-09-07T07:29:38;9.32;;;5.00;;
55172;SDS011;41061;52.822;6.860;2023-09-07T07:32:04;12.57;;;5.35;;
55172;SDS011;41061;52.822;6.860;2023-09-07T07:34:30;5.53;;;4.65;;
55172;SDS011;41061;52.822;6.860;2023-09-07T07:36:57;87.65;;;12.88;;
55172;SDS011;41061;52.822;6.860;2023-09-07T07:39:23;137.00;;;30.77;;
55172;SDS011;41061;52.822;6.860;2023-09-07T07:41:49;202.40;;;26.75;;
55172;SDS011;41061;52.822;6.860;2023-09-07T07:44:15;132.32;;;23.23;;
55172;SDS011;41061;52.822;6.860;2023-09-07T07:46:41;85.35;;;24.08;;
55172;SDS011;41061;52.822;6.860;2023-09-07T07:49:08;82.63;;;21.38;;
55172;SDS011;41061;52.822;6.860;2023-09-07T07:51:34;71.32;;;18.70;;
55172;SDS011;41061;52.822;6.860;2023-09-07T07:54:00;49.10;;;15.68;;
55172;SDS011;41061;52.822;6.860;2023-09-07T07:56:25;46.05;;;18.67;;
55172;SDS011;41061;52.822;6.860;2023-09-07T07:58:51;60.45;;;18.70;;
55172;SDS011;41061;52.822;6.860;2023-09-07T08:01:17;39.45;;;15.70;;
55172;SDS011;41061;52.822;6.860;2023-09-07T08:03:45;29.48;;;14.15;;
55172;SDS011;41061;52.822;6.860;2023-09-07T08:06:11;146.68;;;22.77;;
55172;SDS011;41061;52.822;6.860;2023-09-07T08:08:39;53.35;;;17.67;;
55172;SDS011;41061;52.822;6.860;2023-09-07T08:11:04;65.80;;;15.45;;
55172;SDS011;41061;52.822;6.860;2023-09-07T08:13:34;81.22;;;19.52;;
55172;SDS011;41061;52.822;6.860;2023-09-07T08:16:01;88.00;;;17.92;;
55172;SDS011;41061;52.822;6.860;2023-09-07T08:18:27;80.97;;;22.15;;
55172;SDS011;41061;52.822;6.860;2023-09-07T08:20:53;214.65;;;31.40;;
55172;SDS011;41061;52.822;6.860;2023-09-07T08:23:20;85.13;;;18.40;;
55172;SDS011;41061;52.822;6.860;2023-09-07T08:25:48;56.88;;;21.92;;
55172;SDS011;41061;52.822;6.860;2023-09-07T08:28:15;105.22;;;21.40;;
55172;SDS011;41061;52.822;6.860;2023-09-07T08:30:43;167.98;;;32.03;;
55172;SDS011;41061;52.822;6.860;2023-09-07T08:33:09;67.55;;;18.15;;
55172;SDS011;41061;52.822;6.860;2023-09-07T08:35:35;66.60;;;17.55;;
55172;SDS011;41061;52.822;6.860;2023-09-07T08:38:02;123.40;;;21.50;;
55172;SDS011;41061;52.822;6.860;2023-09-07T08:40:33;164.82;;;30.30;;
55172;SDS011;41061;52.822;6.860;2023-09-07T08:43:01;75.70;;;21.00;;
55172;SDS011;41061;52.822;6.860;2023-09-07T08:45:31;136.52;;;25.45;;
55172;SDS011;41061;52.822;6.860;2023-09-07T08:48:03;143.68;;;29.95;;
55172;SDS011;41061;52.822;6.860;2023-09-07T08:50:29;336.60;;;53.83;;
55172;SDS011;41061;52.822;6.860;2023-09-07T08:52:56;175.85;;;29.67;;
55172;SDS011;41061;52.822;6.860;2023-09-07T08:55:24;113.97;;;26.10;;
55172;SDS011;41061;52.822;6.860;2023-09-07T08:57:51;76.07;;;22.10;;
55172;SDS011;41061;52.822;6.860;2023-09-07T09:00:16;116.63;;;23.25;;
55172;SDS011;41061;52.822;6.860;2023-09-07T09:02:48;166.85;;;28.75;;
55172;SDS011;41061;52.822;6.860;2023-09-07T09:05:14;143.13;;;21.45;;
55172;SDS011;41061;52.822;6.860;2023-09-07T09:07:41;102.25;;;25.20;;
55172;SDS011;41061;52.822;6.860;2023-09-07T09:10:07;292.67;;;48.22;;
55172;SDS011;41061;52.822;6.860;2023-09-07T09:12:33;52.60;;;18.35;;
55172;SDS011;41061;52.822;6.860;2023-09-07T09:15:00;114.43;;;25.42;;
55172;SDS011;41061;52.822;6.860;2023-09-07T09:17:28;83.63;;;21.77;;
55172;SDS011;41061;52.822;6.860;2023-09-07T09:19:54;220.70;;;36.47;;
55172;SDS011;41061;52.822;6.860;2023-09-07T09:22:20;140.85;;;34.45;;
55172;SDS011;41061;52.822;6.860;2023-09-07T09:24:49;169.05;;;26.88;;
55172;SDS011;41061;52.822;6.860;2023-09-07T09:27:15;137.43;;;33.15;;
55172;SDS011;41061;52.822;6.860;2023-09-07T09:29:42;61.30;;;17.08;;
55172;SDS011;41061;52.822;6.860;2023-09-07T09:32:09;188.63;;;33.58;;
55172;SDS011;41061;52.822;6.860;2023-09-07T09:34:38;100.53;;;22.05;;
55172;SDS011;41061;52.822;6.860;2023-09-07T09:37:04;235.07;;;41.15;;
55172;SDS011;41061;52.822;6.860;2023-09-07T09:39:38;214.43;;;34.67;;
55172;SDS011;41061;52.822;6.860;2023-09-07T09:42:06;155.77;;;25.65;;
55172;SDS011;41061;52.822;6.860;2023-09-07T09:44:32;160.80;;;26.90;;
55172;SDS011;41061;52.822;6.860;2023-09-07T09:46:59;92.50;;;23.40;;
55172;SDS011;41061;52.822;6.860;2023-09-07T09:49:25;179.27;;;35.35;;
55172;SDS011;41061;52.822;6.860;2023-09-07T09:51:52;60.88;;;16.02;;
55172;SDS011;41061;52.822;6.860;2023-09-07T09:54:19;210.32;;;28.55;;
55172;SDS011;41061;52.822;6.860;2023-09-07T09:56:45;53.28;;;18.33;;
55172;SDS011;41061;52.822;6.860;2023-09-07T09:59:12;122.65;;;22.42;;
55172;SDS011;41061;52.822;6.860;2023-09-07T10:01:46;179.77;;;38.33;;
55172;SDS011;41061;52.822;6.860;2023-09-07T10:04:14;110.60;;;26.63;;
55172;SDS011;41061;52.822;6.860;2023-09-07T10:06:55;1923.82;;;125.07;;
55172;SDS011;41061;52.822;6.860;2023-09-07T10:09:23;1343.72;;;130.90;;
55172;SDS011;41061;52.822;6.860;2023-09-07T10:11:52;462.15;;;58.75;;
55172;SDS011;41061;52.822;6.860;2023-09-07T10:14:19;452.48;;;63.92;;
55172;SDS011;41061;52.822;6.860;2023-09-07T10:16:46;860.70;;;86.25;;
55172;SDS011;41061;52.822;6.860;2023-09-07T10:19:17;455.95;;;61.17;;
55172;SDS011;41061;52.822;6.860;2023-09-07T10:21:43;657.47;;;79.28;;
55172;SDS011;41061;52.822;6.860;2023-09-07T10:24:09;439.80;;;56.33;;
55172;SDS011;41061;52.822;6.860;2023-09-07T10:26:35;1999.90;;;260.83;;
55172;SDS011;41061;52.822;6.860;2023-09-07T10:29:02;436.60;;;53.42;;
55172;SDS011;41061;52.822;6.860;2023-09-07T10:31:30;260.98;;;38.13;;
55172;SDS011;41061;52.822;6.860;2023-09-07T10:33:56;687.38;;;72.50;;
55172;SDS011;41061;52.822;6.860;2023-09-07T10:36:35;399.15;;;59.30;;
55172;SDS011;41061;52.822;6.860;2023-09-07T10:39:02;1831.18;;;185.38;;
55172;SDS011;41061;52.822;6.860;2023-09-07T10:41:39;1011.97;;;103.25;;
55172;SDS011;41061;52.822;6.860;2023-09-07T10:44:08;668.22;;;72.60;;
55172;SDS011;41061;52.822;6.860;2023-09-07T10:46:40;1663.50;;;157.98;;
55172;SDS011;41061;52.822;6.860;2023-09-07T10:49:06;256.02;;;43.10;;
55172;SDS011;41061;52.822;6.860;2023-09-07T10:51:54;307.83;;;39.60;;
55172;SDS011;41061;52.822;6.860;2023-09-07T10:54:23;1361.22;;;141.73;;
55172;SDS011;41061;52.822;6.860;2023-09-07T10:56:50;201.57;;;32.63;;
55172;SDS011;41061;52.822;6.860;2023-09-07T10:59:16;271.58;;;34.80;;
55172;SDS011;41061;52.822;6.860;2023-09-07T11:01:45;1212.93;;;120.53;;
55172;SDS011;41061;52.822;6.860;2023-09-07T11:04:13;707.38;;;81.00;;
55172;SDS011;41061;52.822;6.860;2023-09-07T11:06:40;770.08;;;68.47;;
55172;SDS011;41061;52.822;6.860;2023-09-07T11:09:06;838.17;;;103.45;;
55172;SDS011;41061;52.822;6.860;2023-09-07T11:11:35;780.22;;;81.97;;
55172;SDS011;41061;52.822;6.860;2023-09-07T11:14:04;1246.85;;;116.68;;
55172;SDS011;41061;52.822;6.860;2023-09-07T11:16:31;1057.32;;;97.20;;
55172;SDS011;41061;52.822;6.860;2023-09-07T11:19:02;474.98;;;59.78;;
55172;SDS011;41061;52.822;6.860;2023-09-07T11:21:29;1999.90;;;206.10;;
55172;SDS011;41061;52.822;6.860;2023-09-07T11:23:57;794.38;;;86.40;;
55172;SDS011;41061;52.822;6.860;2023-09-07T11:26:23;280.65;;;39.47;;
55172;SDS011;41061;52.822;6.860;2023-09-07T11:28:49;450.45;;;59.92;;
55172;SDS011;41061;52.822;6.860;2023-09-07T11:31:18;294.17;;;48.85;;
55172;SDS011;41061;52.822;6.860;2023-09-07T11:33:46;601.97;;;76.63;;
55172;SDS011;41061;52.822;6.860;2023-09-07T11:36:13;486.65;;;56.58;;
55172;SDS011;41061;52.822;6.860;2023-09-07T11:38:42;230.68;;;37.22;;
55172;SDS011;41061;52.822;6.860;2023-09-07T11:41:09;703.10;;;62.63;;
55172;SDS011;41061;52.822;6.860;2023-09-07T11:43:35;674.40;;;75.43;;
55172;SDS011;41061;52.822;6.860;2023-09-07T11:46:01;834.50;;;88.07;;
55172;SDS011;41061;52.822;6.860;2023-09-07T11:48:28;623.83;;;64.03;;
55172;SDS011;41061;52.822;6.860;2023-09-07T11:50:53;1631.70;;;123.88;;
55172;SDS011;41061;52.822;6.860;2023-09-07T11:53:19;766.30;;;73.90;;
55172;SDS011;41061;52.822;6.860;2023-09-07T11:55:45;1083.63;;;116.93;;
55172;SDS011;41061;52.822;6.860;2023-09-07T11:58:10;409.17;;;56.53;;
55172;SDS011;41061;52.822;6.860;2023-09-07T12:00:36;1999.90;;;327.23;;
55172;SDS011;41061;52.822;6.860;2023-09-07T12:03:02;890.88;;;90.25;;
55172;SDS011;41061;52.822;6.860;2023-09-07T12:05:28;1158.15;;;110.15;;
55172;SDS011;41061;52.822;6.860;2023-09-07T12:07:54;446.55;;;55.58;;
55172;SDS011;41061;52.822;6.860;2023-09-07T12:10:20;1226.93;;;124.93;;
55172;SDS011;41061;52.822;6.860;2023-09-07T12:12:45;751.45;;;78.97;;
55172;SDS011;41061;52.822;6.860;2023-09-07T12:15:11;1345.68;;;110.78;;
55172;SDS011;41061;52.822;6.860;2023-09-07T12:17:38;201.65;;;32.47;;
55172;SDS011;41061;52.822;6.860;2023-09-07T12:20:04;271.25;;;43.70;;
55172;SDS011;41061;52.822;6.860;2023-09-07T12:22:35;717.13;;;87.60;;
55172;SDS011;41061;52.822;6.860;2023-09-07T12:25:03;196.43;;;41.65;;
55172;SDS011;41061;52.822;6.860;2023-09-07T12:27:32;504.13;;;60.60;;
55172;SDS011;41061;52.822;6.860;2023-09-07T12:30:01;320.30;;;51.25;;
55172;SDS011;41061;52.822;6.860;2023-09-07T12:32:27;154.15;;;39.65;;
55172;SDS011;41061;52.822;6.860;2023-09-07T12:34:53;628.13;;;71.22;;
55172;SDS011;41061;52.822;6.860;2023-09-07T12:37:19;816.92;;;84.47;;
55172;SDS011;41061;52.822;6.860;2023-09-07T12:39:48;1611.68;;;121.63;;
55172;SDS011;41061;52.822;6.860;2023-09-07T12:42:14;375.50;;;48.53;;
55172;SDS011;41061;52.822;6.860;2023-09-07T12:44:40;639.38;;;75.55;;
55172;SDS011;41061;52.822;6.860;2023-09-07T12:47:06;904.30;;;95.13;;
55172;SDS011;41061;52.822;6.860;2023-09-07T12:49:31;1120.90;;;113.13;;
55172;SDS011;41061;52.822;6.860;2023-09-07T12:51:57;393.13;;;51.63;;
55172;SDS011;41061;52.822;6.860;2023-09-07T12:54:23;898.70;;;101.88;;
55172;SDS011;41061;52.822;6.860;2023-09-07T12:56:49;839.67;;;81.28;;
55172;SDS011;41061;52.822;6.860;2023-09-07T12:59:14;827.60;;;94.20;;
55172;SDS011;41061;52.822;6.860;2023-09-07T13:01:40;356.75;;;49.90;;
55172;SDS011;41061;52.822;6.860;2023-09-07T13:04:06;338.70;;;50.05;;
55172;SDS011;41061;52.822;6.860;2023-09-07T13:06:32;340.10;;;44.85;;
55172;SDS011;41061;52.822;6.860;2023-09-07T13:08:57;708.72;;;85.20;;
55172;SDS011;41061;52.822;6.860;2023-09-07T13:11:23;230.20;;;32.38;;
55172;SDS011;41061;52.822;6.860;2023-09-07T13:13:49;391.58;;;54.97;;
55172;SDS011;41061;52.822;6.860;2023-09-07T13:16:15;557.97;;;72.97;;
55172;SDS011;41061;52.822;6.860;2023-09-07T13:18:41;359.85;;;51.53;;
55172;SDS011;41061;52.822;6.860;2023-09-07T13:21:07;301.63;;;50.00;;
55172;SDS011;41061;52.822;6.860;2023-09-07T13:23:33;1099.88;;;112.70;;
55172;SDS011;41061;52.822;6.860;2023-09-07T13:25:59;379.30;;;65.65;;
55172;SDS011;41061;52.822;6.860;2023-09-07T13:28:27;901.83;;;86.30;;
55172;SDS011;41061;52.822;6.860;2023-09-07T13:30:53;1176.78;;;113.53;;
55172;SDS011;41061;52.822;6.860;2023-09-07T13:33:19;1999.90;;;488.42;;
55172;SDS011;41061;52.822;6.860;2023-09-07T13:35:45;660.55;;;77.97;;
55172;SDS011;41061;52.822;6.860;2023-09-07T13:38:11;592.65;;;67.15;;
55172;SDS011;41061;52.822;6.860;2023-09-07T13:40:40;980.42;;;89.60;;
55172;SDS011;41061;52.822;6.860;2023-09-07T13:43:06;1999.90;;;244.75;;
55172;SDS011;41061;52.822;6.860;2023-09-07T13:45:32;874.53;;;73.80;;
55172;SDS011;41061;52.822;6.860;2023-09-07T13:47:58;948.53;;;91.38;;
55172;SDS011;41061;52.822;6.860;2023-09-07T13:50:24;979.35;;;105.25;;
55172;SDS011;41061;52.822;6.860;2023-09-07T13:52:50;336.83;;;47.95;;
55172;SDS011;41061;52.822;6.860;2023-09-07T13:55:15;392.50;;;53.20;;
55172;SDS011;41061;52.822;6.860;2023-09-07T13:57:41;826.53;;;89.28;;
55172;SDS011;41061;52.822;6.860;2023-09-07T14:00:10;393.33;;;54.60;;
55172;SDS011;41061;52.822;6.860;2023-09-07T14:02:36;552.00;;;73.78;;
55172;SDS011;41061;52.822;6.860;2023-09-07T14:05:02;792.33;;;91.20;;
55172;SDS011;41061;52.822;6.860;2023-09-07T14:07:29;740.75;;;78.72;;
55172;SDS011;41061;52.822;6.860;2023-09-07T14:09:54;408.58;;;48.88;;
55172;SDS011;41061;52.822;6.860;2023-09-07T14:12:20;498.40;;;53.97;;
55172;SDS011;41061;52.822;6.860;2023-09-07T14:14:47;408.73;;;52.20;;
55172;SDS011;41061;52.822;6.860;2023-09-07T14:17:13;636.88;;;80.55;;
55172;SDS011;41061;52.822;6.860;2023-09-07T14:19:39;575.90;;;61.13;;
55172;SDS011;41061;52.822;6.860;2023-09-07T14:22:04;991.60;;;98.50;;
55172;SDS011;41061;52.822;6.860;2023-09-07T14:24:30;1293.30;;;117.88;;